Time;durP1;ratioP1;P1;durP2;ratioP2;P2;SDS_P1;SDS_P2;PMS_P1;PMS_P2;Temp;Humidity;BMP_temperature;BMP_pressure;BME280_temperature;BME280_humidity;BME280_pressure;Samples;Min_cycle;Max_cycle;Signal;HPM_P1;HPM_P2
2023/12/29 00:00:48;;;;;;;3.13;1.70;;;;;;;;;;6218761;23;20028;-81
2023/12/29 00:03:34;;;;;;;3.25;1.90;;;;;;;;;;6218680;23;20087;-81
2023/12/29 00:06:19;;;;;;;2.72;1.80;;;;;;;;;;6218664;23;20035;-81
2023/12/29 00:09:04;;;;;;;3.42;2.00;;;;;;;;;;6218341;23;20035;-81
2023/12/29 00:11:50;;;;;;;3.42;1.83;;;;;;;;;;6218630;23;19997;-82
2023/12/29 00:14:39;;;;;;;4.78;2.03;;;;;;;;;;6239011;23;20020;-80
2023/12/29 00:17:25;;;;;;;3.43;2.10;;;;;;;;;;6239403;23;20000;-82
2023/12/29 00:20:10;;;;;;;2.50;2.00;;;;;;;;;;6218659;23;20050;-82
2023/12/29 00:22:58;;;;;;;5.22;2.33;;;;;;;;;;6217865;23;20003;-80
2023/12/29 00:25:43;;;;;;;3.50;2.03;;;;;;;;;;6218502;23;20372;-82
2023/12/29 00:28:28;;;;;;;3.47;2.38;;;;;;;;;;6218252;23;20007;-81
2023/12/29 00:31:15;;;;;;;3.30;2.40;;;;;;;;;;6218037;23;19996;-82
2023/12/29 00:34:00;;;;;;;3.50;2.53;;;;;;;;;;6218307;23;20001;-83
2023/12/29 00:36:45;;;;;;;3.53;2.38;;;;;;;;;;6218067;23;20065;-80
2023/12/29 00:39:38;;;;;;;2.97;1.98;;;;;;;;;;6218487;23;19996;-82
2023/12/29 00:42:23;;;;;;;4.53;1.90;;;;;;;;;;6218637;23;20003;-82
2023/12/29 00:45:09;;;;;;;4.93;2.83;;;;;;;;;;6218173;23;20054;-82
2023/12/29 00:47:55;;;;;;;3.88;2.25;;;;;;;;;;6217595;23;20026;-81
2023/12/29 00:50:40;;;;;;;4.15;2.20;;;;;;;;;;6218496;23;20004;-81
2023/12/29 00:53:25;;;;;;;4.03;2.10;;;;;;;;;;6218178;23;20003;-81
2023/12/29 00:56:11;;;;;;;3.90;2.42;;;;;;;;;;6218468;23;20051;-81
2023/12/29 00:58:56;;;;;;;4.22;2.05;;;;;;;;;;6218445;23;20007;-80
2023/12/29 01:01:44;;;;;;;2.03;1.80;;;;;;;;;;6239110;23;20004;-80
2023/12/29 01:04:29;;;;;;;4.85;2.65;;;;;;;;;;6218492;23;20007;-80
2023/12/29 01:07:14;;;;;;;3.90;2.08;;;;;;;;;;6217542;23;20000;-80
2023/12/29 01:10:00;;;;;;;3.65;2.25;;;;;;;;;;6239329;22;20003;-81
2023/12/29 01:12:46;;;;;;;5.18;2.40;;;;;;;;;;6218192;23;20000;-80
2023/12/29 01:15:31;;;;;;;3.65;2.28;;;;;;;;;;6218532;23;20237;-80
2023/12/29 01:18:17;;;;;;;4.65;2.58;;;;;;;;;;6217640;23;20111;-80
2023/12/29 01:21:03;;;;;;;3.22;2.33;;;;;;;;;;6217615;23;20007;-80
2023/12/29 01:23:48;;;;;;;3.35;2.10;;;;;;;;;;6218150;23;20050;-80
2023/12/29 01:26:38;;;;;;;4.47;2.55;;;;;;;;;;6217689;23;20266;-81
2023/12/29 01:29:23;;;;;;;2.83;2.45;;;;;;;;;;6217938;23;20043;-82
2023/12/29 01:32:10;;;;;;;3.47;2.20;;;;;;;;;;6218011;23;19996;-83
2023/12/29 01:34:55;;;;;;;2.25;1.70;;;;;;;;;;6217363;23;20000;-81
2023/12/29 01:37:42;;;;;;;6.47;3.28;;;;;;;;;;6217862;23;20076;-81
2023/12/29 01:40:27;;;;;;;3.50;2.30;;;;;;;;;;6239602;23;20329;-80
2023/12/29 01:43:12;;;;;;;5.63;2.63;;;;;;;;;;6197084;23;20142;-80
2023/12/29 01:45:57;;;;;;;2.83;2.00;;;;;;;;;;6220519;23;20000;-82
2023/12/29 01:48:43;;;;;;;3.28;2.10;;;;;;;;;;6219937;23;20050;-82
2023/12/29 01:51:29;;;;;;;4.40;2.40;;;;;;;;;;6219890;23;20003;-81
2023/12/29 01:54:14;;;;;;;3.00;2.30;;;;;;;;;;6219501;23;19992;-82
2023/12/29 01:57:00;;;;;;;3.17;2.28;;;;;;;;;;6241514;23;20008;-83
2023/12/29 01:59:47;;;;;;;5.10;2.85;;;;;;;;;;6220357;23;19996;-81
2023/12/29 02:02:32;;;;;;;4.90;3.15;;;;;;;;;;6219798;23;20004;-80
2023/12/29 02:05:20;;;;;;;4.78;2.38;;;;;;;;;;6219826;23;20364;-81
2023/12/29 02:08:05;;;;;;;6.28;2.85;;;;;;;;;;6219638;23;20039;-82
2023/12/29 02:10:51;;;;;;;4.25;2.47;;;;;;;;;;6240867;22;20062;-81
2023/12/29 02:13:37;;;;;;;6.10;2.78;;;;;;;;;;6219405;23;19999;-80
2023/12/29 02:16:25;;;;;;;3.88;2.58;;;;;;;;;;6219941;23;20340;-80
2023/12/29 02:19:21;;;;;;;4.93;2.72;;;;;;;;;;6240937;23;20003;-80
2023/12/29 02:22:07;;;;;;;6.00;2.30;;;;;;;;;;6219631;23;19996;-81
2023/12/29 02:24:53;;;;;;;6.35;3.15;;;;;;;;;;6219620;23;20117;-81
2023/12/29 02:27:56;;;;;;;4.80;2.85;;;;;;;;;;6219647;23;20006;-82
2023/12/29 02:30:51;;;;;;;3.83;2.40;;;;;;;;;;6219717;23;19993;-81
2023/12/29 02:33:38;;;;;;;4.05;2.85;;;;;;;;;;6219470;23;20003;-81
2023/12/29 02:36:23;;;;;;;4.03;2.80;;;;;;;;;;6241069;23;19996;-81
2023/12/29 02:39:10;;;;;;;4.93;3.03;;;;;;;;;;6219315;23;19996;-80
2023/12/29 02:41:55;;;;;;;4.05;2.53;;;;;;;;;;6240696;23;20031;-81
2023/12/29 02:44:40;;;;;;;5.32;2.95;;;;;;;;;;6224568;23;19996;-83
2023/12/29 02:47:26;;;;;;;6.57;3.17;;;;;;;;;;6219681;23;20000;-81
2023/12/29 02:50:11;;;;;;;4.97;2.60;;;;;;;;;;6219792;23;20620;-83
2023/12/29 02:52:57;;;;;;;4.00;2.55;;;;;;;;;;6240972;23;19996;-82
2023/12/29 02:55:42;;;;;;;5.55;3.17;;;;;;;;;;6218908;23;20004;-82
2023/12/29 02:58:27;;;;;;;4.88;3.08;;;;;;;;;;6219090;23;20032;-81
2023/12/29 03:01:12;;;;;;;4.40;2.70;;;;;;;;;;6240527;23;20012;-82
2023/12/29 03:03:57;;;;;;;5.85;3.30;;;;;;;;;;6219181;23;20078;-81
2023/12/29 03:06:43;;;;;;;4.20;2.72;;;;;;;;;;6219076;23;20005;-80
2023/12/29 03:09:28;;;;;;;6.15;3.15;;;;;;;;;;6219501;23;20054;-81
2023/12/29 03:12:13;;;;;;;4.18;2.80;;;;;;;;;;6219515;23;20236;-80
2023/12/29 03:14:59;;;;;;;3.22;2.53;;;;;;;;;;6218330;23;20012;-82
2023/12/29 03:17:44;;;;;;;4.35;2.75;;;;;;;;;;6218307;23;20000;-81
2023/12/29 03:20:29;;;;;;;4.90;2.95;;;;;;;;;;6219134;23;20075;-81
2023/12/29 03:23:14;;;;;;;5.85;2.90;;;;;;;;;;6217957;23;20361;-80
2023/12/29 03:26:00;;;;;;;6.40;3.63;;;;;;;;;;6218646;23;20000;-80
2023/12/29 03:28:45;;;;;;;4.43;2.47;;;;;;;;;;6219245;23;20004;-81
2023/12/29 03:31:30;;;;;;;5.85;3.25;;;;;;;;;;6218023;23;20000;-81
2023/12/29 03:34:16;;;;;;;2.67;2.20;;;;;;;;;;6217702;23;19996;-83
2023/12/29 03:37:01;;;;;;;4.45;2.78;;;;;;;;;;6217882;23;19996;-80
2023/12/29 03:39:46;;;;;;;7.15;2.55;;;;;;;;;;6218010;23;20001;-80
2023/12/29 03:42:31;;;;;;;5.75;2.92;;;;;;;;;;6219471;23;19996;-80
2023/12/29 03:45:16;;;;;;;3.83;2.13;;;;;;;;;;6218080;23;20000;-80
2023/12/29 03:48:02;;;;;;;5.57;2.90;;;;;;;;;;6219086;23;20003;-80
2023/12/29 03:50:47;;;;;;;5.47;2.75;;;;;;;;;;6218837;23;19996;-80
2023/12/29 03:53:32;;;;;;;5.75;2.42;;;;;;;;;;6218135;23;20070;-81
2023/12/29 03:56:18;;;;;;;3.50;2.65;;;;;;;;;;6217513;23;19993;-81
2023/12/29 03:59:03;;;;;;;4.30;2.50;;;;;;;;;;6218883;23;20036;-83
2023/12/29 04:01:49;;;;;;;3.47;2.30;;;;;;;;;;6218367;23;20004;-83
2023/12/29 04:04:38;;;;;;;4.93;2.50;;;;;;;;;;6218313;23;20000;-81
2023/12/29 04:07:23;;;;;;;3.47;2.42;;;;;;;;;;6217372;23;20001;-82
2023/12/29 04:10:09;;;;;;;3.05;1.88;;;;;;;;;;6218368;22;19996;-81
2023/12/29 04:12:54;;;;;;;2.90;2.00;;;;;;;;;;6218452;23;19997;-81
2023/12/29 04:15:40;;;;;;;2.80;2.30;;;;;;;;;;6218047;23;20024;-83
2023/12/29 04:18:25;;;;;;;3.15;1.88;;;;;;;;;;6218574;23;19996;-79
2023/12/29 04:21:16;;;;;;;3.10;2.22;;;;;;;;;;6218236;23;20082;-81
2023/12/29 04:24:02;;;;;;;4.15;2.30;;;;;;;;;;6217507;23;20000;-81
2023/12/29 04:26:47;;;;;;;3.38;2.10;;;;;;;;;;6218402;23;20000;-80
2023/12/29 04:29:32;;;;;;;2.95;2.08;;;;;;;;;;6218104;23;20344;-80
2023/12/29 04:32:17;;;;;;;3.72;2.40;;;;;;;;;;6239051;23;20278;-80
2023/12/29 04:35:03;;;;;;;4.55;2.58;;;;;;;;;;6239247;23;19996;-81
2023/12/29 04:37:49;;;;;;;3.38;2.38;;;;;;;;;;6218150;23;20001;-81
2023/12/29 04:40:34;;;;;;;4.18;2.05;;;;;;;;;;6218384;23;20004;-80
2023/12/29 04:43:20;;;;;;;3.20;1.90;;;;;;;;;;6239457;23;20065;-80
2023/12/29 04:46:05;;;;;;;3.40;2.70;;;;;;;;;;6239871;23;20337;-80
2023/12/29 04:48:50;;;;;;;3.72;2.30;;;;;;;;;;6218246;23;20081;-81
2023/12/29 04:51:36;;;;;;;6.03;2.33;;;;;;;;;;6218422;23;20079;-81
2023/12/29 04:54:22;;;;;;;4.50;2.50;;;;;;;;;;6218449;23;20000;-81
2023/12/29 04:57:07;;;;;;;5.72;2.70;;;;;;;;;;6218671;23;20039;-82
2023/12/29 04:59:53;;;;;;;4.25;2.72;;;;;;;;;;6218295;23;20007;-81
2023/12/29 05:02:38;;;;;;;2.75;1.90;;;;;;;;;;6218018;23;20006;-81
2023/12/29 05:05:24;;;;;;;3.47;1.90;;;;;;;;;;6218007;23;19992;-81
2023/12/29 05:08:09;;;;;;;5.32;2.45;;;;;;;;;;6218250;23;20003;-81
2023/12/29 05:10:55;;;;;;;6.05;2.90;;;;;;;;;;6218651;23;19996;-82
2023/12/29 05:13:40;;;;;;;3.83;2.40;;;;;;;;;;6218101;23;20000;-83
2023/12/29 05:16:25;;;;;;;6.72;2.75;;;;;;;;;;6217715;23;20034;-81
2023/12/29 05:19:11;;;;;;;4.45;2.50;;;;;;;;;;6238813;23;20303;-82
2023/12/29 05:21:56;;;;;;;4.13;2.47;;;;;;;;;;6217569;23;20632;-81
2023/12/29 05:24:42;;;;;;;5.18;2.90;;;;;;;;;;6217829;23;20235;-82
2023/12/29 05:27:27;;;;;;;4.35;2.45;;;;;;;;;;6218665;23;20380;-81
2023/12/29 05:30:12;;;;;;;3.45;2.78;;;;;;;;;;6218201;23;20000;-81
2023/12/29 05:32:58;;;;;;;3.53;2.33;;;;;;;;;;6218488;23;20028;-81
2023/12/29 05:35:43;;;;;;;3.65;1.88;;;;;;;;;;6217756;23;19996;-80
2023/12/29 05:38:30;;;;;;;3.75;2.42;;;;;;;;;;6218116;23;20053;-81
2023/12/29 05:41:16;;;;;;;3.72;2.60;;;;;;;;;;6239032;23;20088;-80
2023/12/29 05:44:01;;;;;;;3.63;2.40;;;;;;;;;;6218333;23;20027;-82
2023/12/29 05:46:47;;;;;;;4.50;2.63;;;;;;;;;;6218522;23;20000;-82
2023/12/29 05:49:37;;;;;;;4.20;2.40;;;;;;;;;;6218194;23;20083;-81
2023/12/29 05:52:23;;;;;;;3.53;2.00;;;;;;;;;;6217978;23;20051;-82
2023/12/29 05:55:08;;;;;;;4.40;2.50;;;;;;;;;;6217935;23;20075;-81
2023/12/29 05:57:53;;;;;;;6.78;2.60;;;;;;;;;;6218254;23;20003;-81
2023/12/29 06:00:39;;;;;;;4.25;2.38;;;;;;;;;;6217642;23;19996;-81
2023/12/29 06:03:24;;;;;;;5.32;2.40;;;;;;;;;;6237653;23;20238;-79
2023/12/29 06:06:10;;;;;;;6.10;3.20;;;;;;;;;;6225089;23;20050;-81
2023/12/29 06:08:55;;;;;;;6.75;3.13;;;;;;;;;;6197847;23;20075;-81
2023/12/29 06:11:40;;;;;;;11.60;4.57;;;;;;;;;;6225320;23;20051;-81
2023/12/29 06:14:25;;;;;;;7.30;3.65;;;;;;;;;;6242679;23;20023;-81
2023/12/29 06:17:23;;;;;;;6.07;3.50;;;;;;;;;;6235851;23;20000;-81
2023/12/29 06:20:09;;;;;;;7.55;2.75;;;;;;;;;;6218833;23;20001;-81
2023/12/29 06:22:55;;;;;;;5.97;2.85;;;;;;;;;;6217851;23;20000;-81
2023/12/29 06:25:41;;;;;;;4.55;2.92;;;;;;;;;;6238678;23;20404;-79
2023/12/29 06:28:29;;;;;;;4.45;2.95;;;;;;;;;;6219298;23;20010;-82
2023/12/29 06:31:14;;;;;;;4.07;2.50;;;;;;;;;;6219745;23;19996;-80
2023/12/29 06:34:00;;;;;;;4.75;2.40;;;;;;;;;;6241411;23;20000;-81
2023/12/29 06:36:45;;;;;;;3.70;2.65;;;;;;;;;;6218858;23;20053;-81
2023/12/29 06:39:30;;;;;;;4.28;2.45;;;;;;;;;;6219032;23;20083;-80
2023/12/29 06:42:15;;;;;;;2.88;2.00;;;;;;;;;;6219115;23;20000;-82
2023/12/29 06:45:01;;;;;;;3.90;2.33;;;;;;;;;;6219358;23;20054;-81
2023/12/29 06:47:46;;;;;;;3.67;2.47;;;;;;;;;;6219083;23;20467;-81
2023/12/29 06:50:31;;;;;;;7.97;2.40;;;;;;;;;;6219314;23;20287;-82
2023/12/29 06:53:17;;;;;;;5.38;2.78;;;;;;;;;;6239923;23;20007;-81
2023/12/29 06:56:02;;;;;;;4.45;2.70;;;;;;;;;;6219080;23;20116;-81
2023/12/29 06:58:47;;;;;;;4.63;2.53;;;;;;;;;;6219412;23;20000;-80
2023/12/29 07:01:32;;;;;;;3.47;2.50;;;;;;;;;;6219076;23;20042;-79
2023/12/29 07:04:17;;;;;;;3.88;2.13;;;;;;;;;;6239883;23;20031;-81
2023/12/29 07:07:03;;;;;;;3.65;2.10;;;;;;;;;;6218941;23;20054;-80
2023/12/29 07:09:48;;;;;;;6.22;2.38;;;;;;;;;;6219134;22;20000;-80
2023/12/29 07:12:33;;;;;;;6.32;2.65;;;;;;;;;;6218939;23;20000;-80
2023/12/29 07:15:18;;;;;;;6.03;3.15;;;;;;;;;;6237904;23;20027;-80
2023/12/29 07:18:04;;;;;;;5.30;2.83;;;;;;;;;;6218976;23;19996;-80
2023/12/29 07:20:49;;;;;;;4.47;2.67;;;;;;;;;;6218363;23;20022;-80
2023/12/29 07:23:34;;;;;;;3.55;2.53;;;;;;;;;;6219175;23;20464;-81
2023/12/29 07:26:19;;;;;;;3.20;2.30;;;;;;;;;;6239430;23;20091;-80
2023/12/29 07:29:05;;;;;;;3.85;2.55;;;;;;;;;;6219186;23;20046;-81
2023/12/29 07:31:50;;;;;;;4.60;2.88;;;;;;;;;;6218990;23;19996;-81
2023/12/29 07:34:36;;;;;;;6.38;3.50;;;;;;;;;;6218586;23;20058;-80
2023/12/29 07:37:21;;;;;;;5.03;2.83;;;;;;;;;;6218475;23;19996;-80
2023/12/29 07:40:07;;;;;;;5.07;2.80;;;;;;;;;;6239885;23;20003;-82
2023/12/29 07:42:53;;;;;;;6.05;2.20;;;;;;;;;;6239718;23;20003;-83
2023/12/29 07:45:38;;;;;;;5.20;2.80;;;;;;;;;;6217728;23;20232;-82
2023/12/29 07:48:23;;;;;;;3.78;2.33;;;;;;;;;;6218505;23;20003;-83
2023/12/29 07:51:08;;;;;;;4.03;1.98;;;;;;;;;;6218237;23;20000;-83
2023/12/29 07:53:54;;;;;;;2.83;1.90;;;;;;;;;;6219008;23;20376;-82
2023/12/29 07:56:39;;;;;;;3.45;2.28;;;;;;;;;;6218405;23;20374;-83
2023/12/29 07:59:24;;;;;;;3.97;2.22;;;;;;;;;;6239641;23;20004;-82
2023/12/29 08:02:10;;;;;;;3.58;2.50;;;;;;;;;;6218559;23;20035;-82
2023/12/29 08:04:55;;;;;;;4.55;2.20;;;;;;;;;;6218291;23;20038;-81
2023/12/29 08:07:40;;;;;;;6.15;2.60;;;;;;;;;;6218380;23;20000;-82
2023/12/29 08:10:25;;;;;;;6.07;2.20;;;;;;;;;;6239456;22;20008;-82
2023/12/29 08:13:11;;;;;;;4.75;2.15;;;;;;;;;;6218744;23;19996;-82
2023/12/29 08:15:56;;;;;;;4.72;2.10;;;;;;;;;;6218728;23;20020;-81
2023/12/29 08:18:42;;;;;;;3.28;2.20;;;;;;;;;;6218063;23;20000;-81
2023/12/29 08:21:27;;;;;;;3.67;2.42;;;;;;;;;;6218260;23;20004;-81
2023/12/29 08:24:12;;;;;;;3.53;2.00;;;;;;;;;;6218814;23;20004;-81
2023/12/29 08:26:58;;;;;;;3.33;2.17;;;;;;;;;;6218662;23;20244;-81
2023/12/29 08:29:43;;;;;;;4.82;2.00;;;;;;;;;;6218394;23;20086;-81
2023/12/29 08:32:29;;;;;;;3.55;2.00;;;;;;;;;;6218643;23;20038;-81
2023/12/29 08:35:14;;;;;;;3.70;1.77;;;;;;;;;;6239383;23;19997;-81
2023/12/29 08:37:59;;;;;;;2.92;1.98;;;;;;;;;;6218054;23;20337;-81
2023/12/29 08:40:44;;;;;;;3.42;1.92;;;;;;;;;;6218179;23;20004;-81
2023/12/29 08:43:30;;;;;;;3.38;2.28;;;;;;;;;;6239528;23;20000;-80
2023/12/29 08:46:15;;;;;;;2.67;1.90;;;;;;;;;;6217631;23;19997;-80
2023/12/29 08:49:01;;;;;;;3.38;2.10;;;;;;;;;;6196691;23;20031;-80
2023/12/29 08:51:46;;;;;;;3.58;2.00;;;;;;;;;;6218060;23;20000;-81
2023/12/29 08:54:31;;;;;;;4.75;2.42;;;;;;;;;;6217561;23;20008;-80
2023/12/29 08:57:17;;;;;;;5.15;2.38;;;;;;;;;;6218049;23;19992;-83
2023/12/29 09:00:03;;;;;;;3.42;2.10;;;;;;;;;;6218134;23;20011;-78
2023/12/29 09:02:48;;;;;;;4.22;2.22;;;;;;;;;;6218249;23;20007;-81
2023/12/29 09:05:33;;;;;;;4.40;2.05;;;;;;;;;;6217971;23;20353;-83
2023/12/29 09:08:19;;;;;;;5.32;2.35;;;;;;;;;;6217451;23;19999;-82
2023/12/29 09:11:04;;;;;;;5.05;2.30;;;;;;;;;;6239417;22;19997;-82
2023/12/29 09:13:49;;;;;;;4.57;2.60;;;;;;;;;;6218306;23;20000;-80
2023/12/29 09:16:37;;;;;;;3.42;1.65;;;;;;;;;;6238939;23;20004;-81
2023/12/29 09:19:23;;;;;;;4.80;2.17;;;;;;;;;;6217673;23;20000;-81
2023/12/29 09:22:08;;;;;;;4.35;2.38;;;;;;;;;;6218327;23;20000;-81
2023/12/29 09:24:54;;;;;;;4.60;1.88;;;;;;;;;;6218144;23;20000;-81
2023/12/29 09:27:40;;;;;;;3.28;2.30;;;;;;;;;;6217851;23;20055;-81
2023/12/29 09:30:25;;;;;;;3.92;1.95;;;;;;;;;;6217575;23;19999;-80
2023/12/29 09:33:12;;;;;;;4.35;2.15;;;;;;;;;;6218391;23;20444;-81
2023/12/29 09:35:57;;;;;;;4.18;2.13;;;;;;;;;;6218131;23;20000;-80
2023/12/29 09:38:46;;;;;;;3.17;1.90;;;;;;;;;;6218530;23;20004;-81
2023/12/29 09:41:31;;;;;;;1.80;1.33;;;;;;;;;;6218297;23;20004;-81
2023/12/29 09:44:18;;;;;;;2.85;1.70;;;;;;;;;;6218472;23;20000;-80
2023/12/29 09:47:06;;;;;;;3.63;1.92;;;;;;;;;;6218224;23;20008;-80
2023/12/29 09:49:55;;;;;;;4.38;1.67;;;;;;;;;;6218072;23;20038;-80
2023/12/29 09:52:40;;;;;;;2.20;1.70;;;;;;;;;;6217546;23;20008;-80
2023/12/29 09:55:26;;;;;;;2.97;1.80;;;;;;;;;;6217719;23;20004;-80
2023/12/29 09:58:12;;;;;;;1.85;1.58;;;;;;;;;;6217965;23;20357;-80
2023/12/29 10:00:57;;;;;;;3.95;2.00;;;;;;;;;;6238662;23;20000;-79
2023/12/29 10:03:43;;;;;;;2.42;1.80;;;;;;;;;;6218059;23;19992;-79
2023/12/29 10:06:30;;;;;;;3.22;1.55;;;;;;;;;;6219706;23;20219;-79
2023/12/29 10:09:16;;;;;;;3.22;1.40;;;;;;;;;;6219581;23;20081;-82
2023/12/29 10:12:03;;;;;;;1.75;1.50;;;;;;;;;;6219552;23;20397;-82
2023/12/29 10:14:52;;;;;;;3.45;1.98;;;;;;;;;;6219127;23;20008;-82
2023/12/29 10:17:43;;;;;;;6.20;2.53;;;;;;;;;;6219955;23;20027;-81
2023/12/29 10:20:37;;;;;;;2.38;1.95;;;;;;;;;;6240796;23;20000;-82
2023/12/29 10:23:26;;;;;;;4.50;1.55;;;;;;;;;;6219114;23;20071;-80
2023/12/29 10:26:11;;;;;;;3.92;1.48;;;;;;;;;;6240125;23;19992;-83
2023/12/29 10:28:57;;;;;;;2.00;1.40;;;;;;;;;;6241049;23;20396;-82
2023/12/29 10:31:42;;;;;;;2.13;1.30;;;;;;;;;;6219777;23;20566;-83
2023/12/29 10:34:31;;;;;;;1.48;1.30;;;;;;;;;;6219837;23;19996;-82
2023/12/29 10:37:22;;;;;;;3.28;1.80;;;;;;;;;;6219430;23;20035;-82
2023/12/29 10:40:07;;;;;;;3.05;1.40;;;;;;;;;;6219848;23;20088;-82
2023/12/29 10:42:53;;;;;;;1.75;1.30;;;;;;;;;;6219827;23;20011;-81
2023/12/29 10:45:39;;;;;;;2.63;1.38;;;;;;;;;;6240475;23;20042;-81
2023/12/29 10:48:24;;;;;;;2.05;1.23;;;;;;;;;;6219501;23;20425;-82
2023/12/29 10:51:09;;;;;;;1.92;1.30;;;;;;;;;;6219494;23;20007;-82
2023/12/29 10:53:56;;;;;;;1.83;1.10;;;;;;;;;;6219631;23;20007;-81
2023/12/29 10:56:41;;;;;;;2.55;1.15;;;;;;;;;;6218602;23;20082;-82
2023/12/29 10:59:29;;;;;;;2.20;1.17;;;;;;;;;;6219622;23;20007;-82
2023/12/29 11:02:14;;;;;;;2.97;1.35;;;;;;;;;;6219018;23;20000;-81
2023/12/29 11:05:07;;;;;;;1.33;1.20;;;;;;;;;;6218983;23;20036;-82
2023/12/29 11:07:54;;;;;;;1.33;1.10;;;;;;;;;;6218982;23;20004;-82
2023/12/29 11:10:40;;;;;;;3.30;1.27;;;;;;;;;;6218623;23;20058;-80
2023/12/29 11:13:26;;;;;;;1.55;1.20;;;;;;;;;;6196528;23;20022;-80
2023/12/29 11:16:22;;;;;;;2.05;1.70;;;;;;;;;;6216716;23;20012;-81
2023/12/29 11:19:12;;;;;;;2.17;1.38;;;;;;;;;;6233366;23;20000;-81
2023/12/29 11:21:57;;;;;;;;;;;;;;;;;;6219679;23;20627;-81
2023/12/29 11:24:45;;;;;;;2.10;1.48;;;;;;;;;;6218624;23;19934;-82
2023/12/29 11:27:31;;;;;;;2.25;1.48;;;;;;;;;;6219060;23;20004;-84
2023/12/29 11:30:16;;;;;;;2.92;1.40;;;;;;;;;;6219120;23;20333;-82
2023/12/29 11:33:10;;;;;;;1.85;1.00;;;;;;;;;;6218973;23;20000;-82
2023/12/29 11:35:55;;;;;;;2.88;1.15;;;;;;;;;;6240194;23;20010;-83
2023/12/29 11:39:00;;;;;;;1.50;1.20;;;;;;;;;;6219229;23;20271;-83
2023/12/29 11:41:51;;;;;;;2.80;1.50;;;;;;;;;;6219073;23;20007;-82
2023/12/29 11:44:46;;;;;;;2.45;1.42;;;;;;;;;;6219674;23;20078;-82
2023/12/29 11:47:35;;;;;;;2.22;1.33;;;;;;;;;;6216774;23;20011;-83
2023/12/29 11:50:27;;;;;;;3.33;1.52;;;;;;;;;;6219047;23;20000;-83
2023/12/29 11:53:31;;;;;;;1.90;1.20;;;;;;;;;;6217056;23;20012;-82
2023/12/29 11:56:19;;;;;;;1.70;1.20;;;;;;;;;;6235343;23;20417;-82
2023/12/29 11:59:14;;;;;;;1.77;1.20;;;;;;;;;;6218895;23;20087;-82
2023/12/29 12:02:00;;;;;;;2.00;1.38;;;;;;;;;;6216720;23;20095;-82
2023/12/29 12:04:46;;;;;;;1.35;1.25;;;;;;;;;;6218639;23;20010;-81
2023/12/29 12:07:31;;;;;;;1.88;1.30;;;;;;;;;;6218302;23;20007;-81
2023/12/29 12:10:19;;;;;;;3.20;1.45;;;;;;;;;;6218157;23;20000;-81
2023/12/29 12:13:05;;;;;;;2.42;1.50;;;;;;;;;;6218224;23;20455;-81
2023/12/29 12:15:50;;;;;;;2.22;1.25;;;;;;;;;;6197005;23;20012;-81
2023/12/29 12:18:37;;;;;;;2.38;1.30;;;;;;;;;;6218092;23;20000;-81
2023/12/29 12:21:23;;;;;;;2.28;1.42;;;;;;;;;;6217209;23;20035;-79
2023/12/29 12:24:09;;;;;;;2.35;1.30;;;;;;;;;;6217715;23;20007;-81
2023/12/29 12:26:54;;;;;;;2.33;1.23;;;;;;;;;;6217914;23;20000;-81
2023/12/29 12:29:41;;;;;;;2.40;1.70;;;;;;;;;;6217509;23;20016;-80
2023/12/29 12:32:29;;;;;;;2.13;1.00;;;;;;;;;;6217710;23;20006;-81
2023/12/29 12:35:17;;;;;;;3.83;1.40;;;;;;;;;;6217615;23;20058;-82
2023/12/29 12:38:32;;;;;;;1.40;1.30;;;;;;;;;;6217227;23;19996;-78
2023/12/29 12:41:17;;;;;;;2.40;1.58;;;;;;;;;;6217478;23;20022;-82
2023/12/29 12:44:10;;;;;;;1.58;1.20;;;;;;;;;;6238510;23;20004;-81
2023/12/29 12:46:57;;;;;;;2.42;1.17;;;;;;;;;;6217366;23;20337;-81
2023/12/29 12:49:43;;;;;;;2.13;1.30;;;;;;;;;;6217573;23;20007;-81
2023/12/29 12:52:35;;;;;;;1.88;1.10;;;;;;;;;;6217976;23;20004;-82
2023/12/29 12:55:20;;;;;;;1.75;1.30;;;;;;;;;;6238400;23;20293;-82
2023/12/29 12:58:05;;;;;;;1.60;1.17;;;;;;;;;;6217842;23;20013;-80
2023/12/29 13:00:51;;;;;;;2.67;1.58;;;;;;;;;;6217650;23;20000;-80
2023/12/29 13:03:38;;;;;;;1.52;1.10;;;;;;;;;;6217367;23;20067;-81
2023/12/29 13:06:23;;;;;;;2.33;1.25;;;;;;;;;;6217672;23;20007;-81
2023/12/29 13:09:11;;;;;;;1.55;1.20;;;;;;;;;;6238585;23;20102;-81
2023/12/29 13:12:12;;;;;;;2.20;1.35;;;;;;;;;;6217669;23;20389;-81
2023/12/29 13:15:10;;;;;;;2.35;1.60;;;;;;;;;;6217719;23;20016;-81
2023/12/29 13:17:55;;;;;;;1.33;1.15;;;;;;;;;;6217758;23;20004;-82
2023/12/29 13:20:47;;;;;;;2.50;1.15;;;;;;;;;;6217564;23;20011;-81
2023/12/29 13:23:33;;;;;;;1.73;1.02;;;;;;;;;;6238279;23;20000;-81
2023/12/29 13:26:18;;;;;;;2.75;1.23;;;;;;;;;;6217489;23;20136;-80
2023/12/29 13:29:03;;;;;;;1.00;0.90;;;;;;;;;;6217063;23;20004;-79
2023/12/29 13:31:49;;;;;;;2.60;1.45;;;;;;;;;;6217391;23;20496;-80
2023/12/29 13:34:57;;;;;;;1.33;1.05;;;;;;;;;;6238462;23;20046;-79
2023/12/29 13:37:48;;;;;;;1.63;1.10;;;;;;;;;;6217198;23;20039;-80
2023/12/29 13:40:37;;;;;;;1.42;1.15;;;;;;;;;;6241114;23;19996;-79
2023/12/29 13:43:22;;;;;;;1.80;1.27;;;;;;;;;;6220679;23;20011;-80
2023/12/29 13:46:08;;;;;;;1.90;1.17;;;;;;;;;;6241924;23;20036;-80
2023/12/29 13:48:54;;;;;;;3.20;1.20;;;;;;;;;;6241686;23;19996;-80
2023/12/29 13:51:40;;;;;;;1.60;1.00;;;;;;;;;;6221123;23;20437;-82
2023/12/29 13:54:26;;;;;;;2.83;1.25;;;;;;;;;;6220692;23;20071;-81
2023/12/29 13:57:12;;;;;;;2.33;1.20;;;;;;;;;;6220780;23;19996;-81
2023/12/29 13:59:57;;;;;;;2.97;1.85;;;;;;;;;;6199867;23;20019;-82
2023/12/29 14:02:50;;;;;;;2.88;1.77;;;;;;;;;;6220645;23;20027;-81
2023/12/29 14:05:39;;;;;;;1.55;1.10;;;;;;;;;;6220085;23;19996;-82
2023/12/29 14:08:40;;;;;;;2.63;1.50;;;;;;;;;;6220920;23;20058;-81
2023/12/29 14:11:26;;;;;;;2.70;1.38;;;;;;;;;;6220483;23;19996;-78
2023/12/29 14:14:11;;;;;;;1.70;1.25;;;;;;;;;;6241928;23;20004;-83
2023/12/29 14:16:59;;;;;;;10.95;2.13;;;;;;;;;;6219648;23;19996;-81
2023/12/29 14:19:44;;;;;;;3.40;1.58;;;;;;;;;;6221285;23;20000;-80
2023/12/29 14:22:30;;;;;;;1.83;1.33;;;;;;;;;;6220763;23;20052;-79
2023/12/29 14:25:15;;;;;;;2.83;1.52;;;;;;;;;;6221138;23;20019;-81
2023/12/29 14:28:00;;;;;;;2.38;1.45;;;;;;;;;;6221594;23;20012;-80
2023/12/29 14:30:45;;;;;;;2.35;1.30;;;;;;;;;;6230596;23;19996;-80
2023/12/29 14:33:31;;;;;;;2.35;1.30;;;;;;;;;;6232299;23;20010;-80
2023/12/29 14:36:17;;;;;;;3.50;1.88;;;;;;;;;;6240927;23;19996;-81
2023/12/29 14:39:04;;;;;;;3.05;1.17;;;;;;;;;;6256124;23;20381;-80
2023/12/29 14:41:49;;;;;;;1.65;1.23;;;;;;;;;;6245583;22;19992;-81
2023/12/29 14:44:34;;;;;;;2.63;1.60;;;;;;;;;;6250973;23;20007;-80
2023/12/29 14:47:19;;;;;;;2.90;1.38;;;;;;;;;;6222018;23;20513;-80
2023/12/29 14:50:05;;;;;;;2.65;1.75;;;;;;;;;;6222092;23;20004;-80
2023/12/29 14:52:51;;;;;;;2.35;1.58;;;;;;;;;;6222774;23;20086;-81
2023/12/29 14:55:37;;;;;;;1.80;1.48;;;;;;;;;;6220009;23;20010;-80
2023/12/29 14:58:22;;;;;;;2.17;1.70;;;;;;;;;;6219395;23;20357;-81
2023/12/29 15:01:08;;;;;;;1.40;1.23;;;;;;;;;;6219305;23;20448;-81
2023/12/29 15:03:53;;;;;;;2.60;2.10;;;;;;;;;;6219525;23;20317;-81
2023/12/29 15:06:38;;;;;;;2.42;1.50;;;;;;;;;;6219304;23;20001;-83
2023/12/29 15:09:23;;;;;;;3.75;1.65;;;;;;;;;;6219205;23;19996;-82
2023/12/29 15:12:09;;;;;;;1.85;1.40;;;;;;;;;;6239221;23;20098;-82
2023/12/29 15:14:54;;;;;;;2.15;1.55;;;;;;;;;;6216490;23;20016;-82
2023/12/29 15:17:39;;;;;;;2.55;1.55;;;;;;;;;;6218678;23;20093;-81
2023/12/29 15:20:24;;;;;;;2.13;1.45;;;;;;;;;;6237510;23;20007;-81
2023/12/29 15:23:09;;;;;;;2.35;1.75;;;;;;;;;;6216852;23;20000;-83
2023/12/29 15:25:55;;;;;;;2.58;1.17;;;;;;;;;;6217232;23;20293;-83
2023/12/29 15:28:41;;;;;;;2.53;1.48;;;;;;;;;;6217119;23;20039;-82
2023/12/29 15:31:26;;;;;;;2.80;1.30;;;;;;;;;;6218903;23;20035;-82
2023/12/29 15:34:12;;;;;;;3.08;1.70;;;;;;;;;;6213602;23;20096;-83
2023/12/29 15:36:57;;;;;;;3.10;1.38;;;;;;;;;;6218407;23;19996;-82
2023/12/29 15:39:42;;;;;;;3.13;1.58;;;;;;;;;;6219079;23;20341;-82
2023/12/29 15:42:27;;;;;;;4.28;1.77;;;;;;;;;;6218542;23;20000;-82
2023/12/29 15:45:13;;;;;;;3.00;1.70;;;;;;;;;;6240230;23;20000;-82
2023/12/29 15:47:58;;;;;;;4.05;1.55;;;;;;;;;;6219255;23;19996;-82
2023/12/29 15:50:44;;;;;;;3.92;1.48;;;;;;;;;;6219059;23;20434;-82
2023/12/29 15:53:29;;;;;;;2.55;1.40;;;;;;;;;;6237904;23;20103;-82
2023/12/29 15:56:18;;;;;;;3.63;1.95;;;;;;;;;;6218473;23;19992;-82
2023/12/29 15:59:03;;;;;;;2.33;1.60;;;;;;;;;;6218930;23;20007;-81
2023/12/29 16:01:48;;;;;;;3.33;1.80;;;;;;;;;;6218538;23;20000;-81
2023/12/29 16:04:34;;;;;;;2.90;1.73;;;;;;;;;;6217774;23;20004;-81
2023/12/29 16:07:19;;;;;;;2.17;1.55;;;;;;;;;;6218048;23;20333;-81
2023/12/29 16:10:04;;;;;;;2.10;1.38;;;;;;;;;;6218561;22;20004;-81
2023/12/29 16:12:50;;;;;;;2.38;1.73;;;;;;;;;;6229469;23;20007;-81
2023/12/29 16:15:35;;;;;;;2.75;1.58;;;;;;;;;;6216990;23;20489;-81
2023/12/29 16:18:20;;;;;;;2.85;1.58;;;;;;;;;;6217954;23;20395;-81
2023/12/29 16:21:05;;;;;;;1.55;1.13;;;;;;;;;;6217294;23;19996;-83
2023/12/29 16:23:51;;;;;;;2.58;1.75;;;;;;;;;;6217226;23;20333;-80
2023/12/29 16:26:38;;;;;;;2.95;1.35;;;;;;;;;;6217685;23;20071;-82
2023/12/29 16:29:23;;;;;;;3.42;1.42;;;;;;;;;;6217809;23;20000;-82
2023/12/29 16:32:08;;;;;;;3.22;1.73;;;;;;;;;;6218582;23;20048;-81
2023/12/29 16:34:54;;;;;;;5.50;1.95;;;;;;;;;;6218192;23;19992;-82
2023/12/29 16:37:39;;;;;;;5.13;2.00;;;;;;;;;;6217794;23;20006;-82